Tahitian Princess — ZCDD8 — position and weather

sailwx.info

Track history (hours):
 
Tides and Currents Weather Stations Pressure Air Temp Water Temp Dewpoint Dewpoint Depression Visibility Wind Speed Wind Dir Waves Ship Positions

Tahitian Princess

Operator: P & O Irish Sea Ltd

Last reported at 2018-Feb-22 15:00 UTC. Time now 2018-Feb-22 15:01 UTC.
Position N 53°31' W 003°22'.

Length 167 m; draft 5.8 m.

Type: Passenger vessel. MMSI: 310362000.

Date/timePositionNaut miles runAvg speedWind from/ knotsBaromVisibWave heightAir tempDewpointWater temp
2018-Feb-22 15:00N 53°31' W 003°22'1020.4
2018-Feb-22 14:30N 53°31' W 003°39'1020.4
2018-Feb-22 14:00N 53°33' W 003°56'5719.3
2018-Feb-22 11:03N 53°27' W 005°32'118.5
2018-Feb-22 10:58N 53°27' W 005°34'918.6
2018-Feb-22 10:29N 53°23' W 005°48'918.4
2018-Feb-22 10:00N 53°21' W 006°02'612.3
2018-Feb-22 09:30N 53°21' W 006°12'1 1.2
2018-Feb-22 08:58N 53°21' W 006°13'0 0.0
2018-Feb-22 08:30N 53°21' W 006°13'0 0.0
2018-Feb-22 07:53N 53°21' W 006°13'0 0.0
2018-Feb-22 07:31N 53°21' W 006°13'0 0.0
2018-Feb-22 07:00N 53°21' W 006°13'0 0.0
2018-Feb-22 06:30N 53°21' W 006°13'0 0.0
2018-Feb-22 06:00N 53°21' W 006°13'0 0.0
2018-Feb-22 05:30N 53°21' W 006°13'0 0.2
2018-Feb-22 05:00N 53°21' W 006°13'4 7.4
2018-Feb-22 04:30N 53°20' W 006°07'917.8
2018-Feb-22 04:00N 53°23' W 005°53'917.2
2018-Feb-22 03:30N 53°26' W 005°39'5417.8
2018-Feb-22 00:27N 53°36' W 004°09'818.4
2018-Feb-22 00:01N 53°35' W 003°55'918.8
2018-Feb-21 23:30N 53°34' W 003°40'918.6
2018-Feb-21 23:00N 53°33' W 003°24'816.0
2018-Feb-21 22:31N 53°32' W 003°11'714.6
2018-Feb-21 22:00N 53°27' W 003°02'0 0.7
2018-Feb-21 21:30N 53°27' W 003°01'0 0.9
2018-Feb-21 20:58N 53°27' W 003°01'0 0.0
2018-Feb-21 20:29N 53°27' W 003°01'0 0.0
2018-Feb-21 20:00N 53°27' W 003°01'0 0.0
2018-Feb-21 19:30N 53°27' W 003°01'0 0.0
2018-Feb-21 19:00N 53°27' W 003°01'0 0.0
2018-Feb-21 18:30N 53°27' W 003°01'0 0.0
2018-Feb-21 18:00N 53°27' W 003°01'0 0.0
2018-Feb-21 17:30N 53°27' W 003°01'0 0.0
2018-Feb-21 17:00N 53°27' W 003°01'0 0.8
2018-Feb-21 16:30N 53°27' W 003°01'0 0.3
2018-Feb-21 16:00N 53°27' W 003°01'510.8
2018-Feb-21 15:30N 53°31' W 003°07'816.8
2018-Feb-21 15:00N 53°31' W 003°21'917.7
2018-Feb-21 14:30N 53°31' W 003°36'918.2
2018-Feb-21 14:00N 53°32' W 003°51'1019.3
2018-Feb-21 13:28N 53°33' W 004°08'5120.9
2018-Feb-21 11:03N 53°27' W 005°33'320.5
2018-Feb-21 10:54N 53°26' W 005°37'820.5
2018-Feb-21 10:30N 53°23' W 005°51'1019.1
2018-Feb-21 10:01N 53°20' W 006°06'4 8.8
2018-Feb-21 09:30N 53°21' W 006°13'0 0.2
2018-Feb-21 09:00N 53°21' W 006°13'0 0.0
2018-Feb-21 08:30N 53°21' W 006°13'0 0.0
2018-Feb-21 08:00N 53°21' W 006°13'0 0.0
2018-Feb-21 07:30N 53°21' W 006°13'0 0.0
2018-Feb-21 07:00N 53°21' W 006°13'0 0.0
2018-Feb-21 06:30N 53°21' W 006°13'0 0.0
2018-Feb-21 06:00N 53°21' W 006°13'0 0.0
2018-Feb-21 05:30N 53°21' W 006°13'0 0.2
2018-Feb-21 05:00N 53°21' W 006°13'4 8.4
2018-Feb-21 04:30N 53°20' W 006°06'918.4
2018-Feb-21 04:00N 53°23' W 005°51'918.4
2018-Feb-21 03:30N 53°26' W 005°37'5418.5
2018-Feb-21 00:36N 53°35' W 004°07'218.6
2018-Feb-21 00:30N 53°35' W 004°05'1018.5
2018-Feb-20 23:59N 53°34' W 003°48'918.5
2018-Feb-20 23:30N 53°33' W 003°33'918.2
2018-Feb-20 23:00N 53°32' W 003°18'714.9
2018-Feb-20 22:30N 53°31' W 003°06'5 9.7
2018-Feb-20 22:01N 53°27' W 003°01'0 0.2
2018-Feb-20 21:30N 53°27' W 003°01'0 0.9
2018-Feb-20 21:00N 53°27' W 003°01'0 0.0
2018-Feb-20 20:30N 53°27' W 003°01'0 0.0
2018-Feb-20 19:57N 53°27' W 003°01'0 0.0
2018-Feb-20 19:30N 53°27' W 003°01'0 0.0
2018-Feb-20 19:00N 53°27' W 003°01'0 0.0
2018-Feb-20 18:28N 53°27' W 003°01'0 0.0
2018-Feb-20 18:00N 53°27' W 003°01'0 0.0
2018-Feb-20 17:30N 53°27' W 003°01'0 0.0
2018-Feb-20 17:00N 53°27' W 003°01'0 0.7
2018-Feb-20 16:27N 53°27' W 003°01'0 0.4
2018-Feb-20 16:00N 53°27' W 003°01'611.4
2018-Feb-20 15:30N 53°31' W 003°07'816.3
2018-Feb-20 15:00N 53°31' W 003°21'917.5
2018-Feb-20 14:30N 53°31' W 003°36'1019.9
2018-Feb-20 14:00N 53°31' W 003°52'7120.5
2018-Feb-20 10:34N 53°23' W 005°50'119.1
2018-Feb-20 10:30N 53°23' W 005°52'917.6
2018-Feb-20 10:00N 53°20' W 006°06'4 8.0
2018-Feb-20 09:30N 53°21' W 006°13'0 0.2
2018-Feb-20 09:00N 53°21' W 006°13'0 0.0
2018-Feb-20 08:30N 53°21' W 006°13'0 0.0
2018-Feb-20 08:00N 53°21' W 006°13'0 0.0
2018-Feb-20 07:30N 53°21' W 006°13'0 0.0
2018-Feb-20 07:00N 53°21' W 006°13'0 0.0
2018-Feb-20 06:30N 53°21' W 006°13'0 0.0
2018-Feb-20 06:00N 53°21' W 006°13'0 0.0
2018-Feb-20 05:30N 53°21' W 006°13'0 0.4
2018-Feb-20 05:00N 53°21' W 006°13'5 9.4
2018-Feb-20 04:30N 53°20' W 006°05'918.5
2018-Feb-20 04:00N 53°24' W 005°51'918.2
2018-Feb-20 03:30N 53°26' W 005°36'5717.5
2018-Feb-20 00:16N 53°35' W 004°02'616.7
2018-Feb-19 23:55N 53°34' W 003°52'816.5
2018-Feb-19 23:27N 53°34' W 003°39'716.5
2018-Feb-19 23:00N 53°33' W 003°27'816.1
2018-Feb-19 22:30N 53°31' W 003°14'713.0
2018-Feb-19 22:00N 53°28' W 003°04'2 4.4
2018-Feb-19 21:30N 53°27' W 003°01'0 0.9
2018-Feb-19 20:58N 53°27' W 003°01'0 0.0
2018-Feb-19 20:30N 53°27' W 003°01'0 0.0
2018-Feb-19 20:00N 53°27' W 003°01'0 0.0
2018-Feb-19 19:27N 53°27' W 003°01'0 0.0
2018-Feb-19 19:00N 53°27' W 003°01'0 0.0
2018-Feb-19 18:30N 53°27' W 003°01'0 0.0
2018-Feb-19 18:00N 53°27' W 003°01'0 0.0
2018-Feb-19 17:30N 53°27' W 003°01'0 0.0
2018-Feb-19 17:00N 53°27' W 003°01'0 0.0
2018-Feb-19 16:30N 53°27' W 003°01'0 0.0
2018-Feb-19 16:00N 53°27' W 003°01'0 0.0
2018-Feb-19 15:30N 53°27' W 003°01'0 0.0
2018-Feb-19 15:00N 53°27' W 003°01'0 0.5
2018-Feb-19 14:30N 53°27' W 003°01'1 1.9
2018-Feb-19 13:59N 53°26' W 003°01'0 0.1
2018-Feb-19 13:30N 53°26' W 003°01'0 0.4
2018-Feb-19 13:00N 53°26' W 003°01'0 0.2
2018-Feb-19 12:30N 53°26' W 003°01'2 4.4
2018-Feb-19 12:00N 53°24' W 003°00'1 1.5
2018-Feb-19 11:29N 53°23' W 003°01'0 0.0
2018-Feb-19 11:00N 53°23' W 003°01'0 0.0
2018-Feb-19 10:30N 53°23' W 003°01'0 0.0
2018-Feb-19 10:00N 53°23' W 003°01'0 0.0
2018-Feb-19 09:29N 53°23' W 003°01'0 0.0
2018-Feb-19 08:57N 53°23' W 003°01'0 0.0
2018-Feb-19 08:30N 53°23' W 003°01'0 0.0
2018-Feb-19 08:00N 53°23' W 003°01'0 0.0
2018-Feb-19 07:30N 53°23' W 003°01'0 0.0
2018-Feb-19 07:00N 53°23' W 003°01'0 0.0
2018-Feb-19 06:30N 53°23' W 003°01'0 0.0
2018-Feb-19 06:00N 53°23' W 003°01'0 0.0
2018-Feb-19 05:29N 53°23' W 003°01'0 0.0
2018-Feb-19 04:50N 53°23' W 003°01'0 0.0
2018-Feb-19 04:26N 53°23' W 003°01'0 0.0
2018-Feb-19 03:59N 53°23' W 003°01'0 0.0
2018-Feb-19 03:29N 53°23' W 003°01'0 0.0
2018-Feb-19 02:59N 53°23' W 003°01'0 0.0
2018-Feb-19 02:29N 53°23' W 003°01'0 0.0
2018-Feb-19 01:59N 53°23' W 003°01'0 0.0
2018-Feb-19 01:29N 53°23' W 003°01'0 0.0
2018-Feb-19 00:56N 53°23' W 003°01'0 0.0
2018-Feb-19 00:29N 53°23' W 003°01'0 0.0
2018-Feb-18 23:59N 53°23' W 003°01'0 0.0
2018-Feb-18 23:26N 53°23' W 003°01'0 0.0
2018-Feb-18 22:59N 53°23' W 003°01'0 0.0
2018-Feb-18 22:29N 53°23' W 003°01'0 0.0
2018-Feb-18 21:59N 53°23' W 003°01'0 0.0
2018-Feb-18 21:29N 53°23' W 003°01'0 0.0
2018-Feb-18 20:59N 53°23' W 003°01'0 0.0
2018-Feb-18 20:29N 53°23' W 003°01'0 0.0
2018-Feb-18 19:59N 53°23' W 003°01'0 0.0
2018-Feb-18 19:29N 53°23' W 003°01'0 0.0
2018-Feb-18 18:59N 53°23' W 003°01'0 0.0
2018-Feb-18 18:29N 53°23' W 003°01'0 0.0
2018-Feb-18 17:59N 53°23' W 003°01'0 0.0
2018-Feb-18 17:23N 53°23' W 003°01'0 0.0
2018-Feb-18 16:59N 53°23' W 003°01'0 0.0
2018-Feb-18 16:26N 53°23' W 003°01'0 0.0
2018-Feb-18 15:57N 53°23' W 003°01'0 0.0
2018-Feb-18 15:23N 53°23' W 003°01'0 0.0
2018-Feb-18 14:59N 53°23' W 003°01'0 0.0
2018-Feb-18 14:29N 53°23' W 003°01'0 0.0
2018-Feb-18 13:59N 53°23' W 003°01'0 0.0
2018-Feb-18 13:29N 53°23' W 003°01'0 0.0
2018-Feb-18 12:59N 53°23' W 003°01'0 0.0
2018-Feb-18 12:29N 53°23' W 003°01'0 0.0
2018-Feb-18 11:59N 53°23' W 003°01'0 0.0
2018-Feb-18 11:29N 53°23' W 003°01'0 0.0
2018-Feb-18 10:59N 53°23' W 003°01'0 0.0
2018-Feb-18 10:26N 53°23' W 003°01'0 0.0
2018-Feb-18 09:56N 53°23' W 003°01'0 0.0
2018-Feb-18 09:29N 53°23' W 003°01'0 0.0
2018-Feb-18 08:59N 53°23' W 003°01'0 0.0
2018-Feb-18 08:29N 53°23' W 003°01'0 0.0
2018-Feb-18 07:59N 53°23' W 003°01'0 0.0
2018-Feb-18 07:29N 53°23' W 003°01'0 0.0
2018-Feb-18 06:59N 53°23' W 003°01'0 0.0
2018-Feb-18 06:26N 53°23' W 003°01'0 0.0
2018-Feb-18 05:56N 53°23' W 003°01'0 0.0
2018-Feb-18 05:23N 53°23' W 003°01'0 0.0
2018-Feb-18 04:59N 53°23' W 003°01'0 0.0
2018-Feb-18 04:29N 53°23' W 003°01'0 0.0
2018-Feb-18 03:59N 53°23' W 003°01'0 0.0
2018-Feb-18 03:29N 53°23' W 003°01'0 0.0
2018-Feb-18 02:59N 53°23' W 003°01'0 0.0
2018-Feb-18 02:26N 53°23' W 003°01'0 0.0
2018-Feb-18 01:56N 53°23' W 003°01'0 0.0
2018-Feb-18 01:29N 53°23' W 003°01'0 0.0
2018-Feb-18 00:59N 53°23' W 003°01'0 0.0
2018-Feb-18 00:26N 53°23' W 003°01'0 0.0
2018-Feb-17 23:59N 53°23' W 003°01'0 0.0
2018-Feb-17 23:29N 53°23' W 003°01'0 0.0
2018-Feb-17 22:53N 53°23' W 003°01'0 0.0
2018-Feb-17 22:29N 53°23' W 003°01'0 0.0
2018-Feb-17 21:56N 53°23' W 003°01'0 0.0
2018-Feb-17 21:26N 53°23' W 003°01'0 0.0
2018-Feb-17 20:59N 53°23' W 003°01'0 0.0
2018-Feb-17 20:29N 53°23' W 003°01'0 0.0
2018-Feb-17 19:59N 53°23' W 003°01'0 0.0
2018-Feb-17 19:29N 53°23' W 003°01'0 0.0
2018-Feb-17 18:59N 53°23' W 003°01'0 0.0
2018-Feb-17 18:26N 53°23' W 003°01'0 0.0
2018-Feb-17 17:59N 53°23' W 003°01'0 0.0
2018-Feb-17 17:29N 53°23' W 003°01'0 0.0
2018-Feb-17 16:59N 53°23' W 003°01'0 0.0
2018-Feb-17 16:29N 53°23' W 003°01'0 0.0
2018-Feb-17 15:56N 53°23' W 003°01'0 0.0
2018-Feb-17 15:26N 53°23' W 003°01'0 0.0
2018-Feb-17 14:59N 53°23' W 003°01'0 0.0
2018-Feb-17 14:29N 53°23' W 003°01'0 0.0
2018-Feb-17 13:59N 53°23' W 003°01'0 0.0
2018-Feb-17 13:26N 53°23' W 003°01'0 0.0
2018-Feb-17 12:59N 53°23' W 003°01'0 0.0
2018-Feb-17 12:29N 53°23' W 003°01'0 0.0
2018-Feb-17 11:59N 53°23' W 003°01'0 0.0
2018-Feb-17 11:29N 53°23' W 003°01'0 0.0
2018-Feb-17 10:59N 53°23' W 003°01'0 0.0
2018-Feb-17 10:26N 53°23' W 003°01'0 0.0
2018-Feb-17 09:59N 53°23' W 003°01'0 0.0
2018-Feb-17 09:29N 53°23' W 003°01'0 0.0
2018-Feb-17 08:59N 53°23' W 003°01'0 0.0
2018-Feb-17 08:29N 53°23' W 003°01'0 0.0
2018-Feb-17 07:53N 53°23' W 003°01'0 0.0
2018-Feb-17 07:26N 53°23' W 003°01'0 0.0
2018-Feb-17 06:59N 53°23' W 003°01'0 0.0
2018-Feb-17 06:29N 53°23' W 003°01'0 0.0
2018-Feb-17 05:59N 53°23' W 003°01'0 0.0
2018-Feb-17 05:26N 53°23' W 003°01'0 0.0
2018-Feb-17 04:59N 53°23' W 003°01'0 0.0
2018-Feb-17 04:29N 53°23' W 003°01'0 0.0
2018-Feb-17 03:59N 53°23' W 003°01'0 0.0
2018-Feb-17 03:29N 53°23' W 003°01'0 0.0
2018-Feb-17 02:59N 53°23' W 003°01'0 0.0
2018-Feb-17 02:29N 53°23' W 003°01'0 0.0
2018-Feb-17 01:59N 53°23' W 003°01'0 0.0
2018-Feb-17 01:23N 53°23' W 003°01'0 0.0
2018-Feb-17 00:56N 53°23' W 003°01'0 0.0
2018-Feb-17 00:26N 53°23' W 003°01'0 0.0
2018-Feb-16 23:56N 53°23' W 003°01'0 0.0
2018-Feb-16 23:29N 53°23' W 003°01'0 0.0
2018-Feb-16 22:59N 53°23' W 003°01'0 0.0
2018-Feb-16 22:29N 53°23' W 003°01'0 0.0
2018-Feb-16 21:59N 53°23' W 003°01'0 0.0
2018-Feb-16 21:23N 53°23' W 003°01'0 0.0
2018-Feb-16 20:59N 53°23' W 003°01'0 0.0
2018-Feb-16 20:26N 53°23' W 003°01'0 0.0
2018-Feb-16 19:56N 53°23' W 003°01'0 0.0
2018-Feb-16 19:26N 53°23' W 003°01'0 0.0
2018-Feb-16 18:53N 53°23' W 003°01'0 0.0
2018-Feb-16 18:29N 53°23' W 003°01'0 0.0
2018-Feb-16 17:50N 53°23' W 003°01'0 0.0
2018-Feb-16 17:29N 53°23' W 003°01'0 0.0
2018-Feb-16 16:59N 53°23' W 003°01'0 0.0
2018-Feb-16 16:23N 53°23' W 003°01'0 0.0
2018-Feb-16 15:59N 53°23' W 003°01'0 0.0
2018-Feb-16 15:29N 53°23' W 003°01'0 0.0
2018-Feb-16 14:53N 53°23' W 003°01'0 0.0
2018-Feb-16 14:29N 53°23' W 003°01'0 0.0
2018-Feb-16 13:53N 53°23' W 003°01'0 0.0
2018-Feb-16 13:29N 53°23' W 003°01'0 0.0
2018-Feb-16 12:50N 53°23' W 003°01'0 0.0
2018-Feb-16 12:26N 53°23' W 003°01'0 0.0
2018-Feb-16 11:59N 53°23' W 003°01'0 0.0
2018-Feb-16 11:26N 53°23' W 003°01'0 0.0
2018-Feb-16 10:59N 53°23' W 003°01'0 0.0
2018-Feb-16 10:23N 53°23' W 003°01'0 0.0
2018-Feb-16 09:59N 53°23' W 003°01'1 2.5
2018-Feb-16 09:30N 53°24' W 003°01'3 4.9
2018-Feb-16 08:58N 53°27' W 003°01'0 0.6
2018-Feb-16 08:28N 53°27' W 003°01'0 0.0
2018-Feb-16 07:58N 53°27' W 003°01'0 0.0
2018-Feb-16 07:25N 53°27' W 003°01'0 0.0
2018-Feb-16 06:59N 53°27' W 003°01'0 0.0
2018-Feb-16 06:30N 53°27' W 003°01'0 0.0
2018-Feb-16 06:01N 53°27' W 003°01'0 0.0
2018-Feb-16 05:30N 53°27' W 003°01'0 0.0
2018-Feb-16 05:00N 53°27' W 003°01'0 0.0
2018-Feb-16 04:30N 53°27' W 003°01'0 0.0
2018-Feb-16 04:00N 53°27' W 003°01'0 0.0
2018-Feb-16 03:30N 53°27' W 003°01'0 0.0
2018-Feb-16 03:00N 53°27' W 003°01'0 0.0
2018-Feb-16 02:30N 53°27' W 003°01'0 0.0
2018-Feb-16 01:58N 53°27' W 003°01'0 0.0
2018-Feb-16 01:30N 53°27' W 003°01'0 0.0
2018-Feb-16 01:00N 53°27' W 003°01'0 0.0
2018-Feb-16 00:30N 53°27' W 003°01'0 0.0
2018-Feb-16 00:00N 53°27' W 003°01'0 0.0
2018-Feb-15 23:30N 53°27' W 003°01'0 0.5
2018-Feb-15 23:00N 53°27' W 003°01'0 0.6
2018-Feb-15 22:30N 53°27' W 003°01'1 1.8
2018-Feb-15 22:00N 53°27' W 003°02'714.6
2018-Feb-15 21:30N 53°31' W 003°13'1019.1
2018-Feb-15 21:00N 53°31' W 003°29'917.6
2018-Feb-15 20:30N 53°31' W 003°44'917.8
2018-Feb-15 19:59N 53°33' W 003°59'6117.9
2018-Feb-15 16:36N 53°24' W 005°40'218.6
2018-Feb-15 16:29N 53°24' W 005°43'918.7
2018-Feb-15 16:00N 53°22' W 005°58'815.4
2018-Feb-15 15:30N 53°21' W 006°10'2 3.2
2018-Feb-15 14:59N 53°21' W 006°13'0 0.0
2018-Feb-15 14:30N 53°21' W 006°13'0 0.0
2018-Feb-15 14:00N 53°21' W 006°13'0 0.0
2018-Feb-15 13:28N 53°21' W 006°13'0 0.0
2018-Feb-15 13:00N 53°21' W 006°13'0 0.0
2018-Feb-15 12:30N 53°21' W 006°13'0 0.0
2018-Feb-15 12:00N 53°21' W 006°13'0 0.0
2018-Feb-15 11:30N 53°21' W 006°13'2 4.7
2018-Feb-15 11:00N 53°21' W 006°09'816.6
2018-Feb-15 10:31N 53°23' W 005°56'1019.8
2018-Feb-15 10:00N 53°26' W 005°40'5817.6
2018-Feb-15 06:41N 53°36' W 004°03'518.6
2018-Feb-15 06:24N 53°35' W 003°54'819.4
2018-Feb-15 06:00N 53°34' W 003°41'1019.7
2018-Feb-15 05:30N 53°33' W 003°25'917.1
2018-Feb-15 05:00N 53°32' W 003°10'714.8
2018-Feb-15 04:30N 53°27' W 003°01'0 0.3
2018-Feb-15 04:00N 53°27' W 003°01'0 0.9
2018-Feb-15 03:30N 53°27' W 003°01'0 0.0
2018-Feb-15 03:00N 53°27' W 003°01'0 0.0
2018-Feb-15 02:30N 53°27' W 003°01'0 0.0
2018-Feb-15 02:00N 53°27' W 003°01'0 0.0
2018-Feb-15 01:30N 53°27' W 003°01'0 0.0
2018-Feb-15 01:00N 53°27' W 003°01'0 0.0
2018-Feb-15 00:30N 53°27' W 003°01'0 0.2
2018-Feb-14 23:57N 53°27' W 003°01'0 0.8
2018-Feb-14 23:30N 53°27' W 003°01'1 2.3
2018-Feb-14 23:00N 53°27' W 003°03'4 8.1
2018-Feb-14 22:30N 53°31' W 003°07'917.3
2018-Feb-14 22:01N 53°31' W 003°21'917.2
2018-Feb-14 21:30N 53°31' W 003°36'918.2
2018-Feb-14 21:00N 53°32' W 003°51'6317.9
2018-Feb-14 17:29N 53°15' W 005°32'917.7
2018-Feb-14 17:00N 53°17' W 005°47'918.4
2018-Feb-14 16:30N 53°21' W 006°00'713.4
2018-Feb-14 16:00N 53°21' W 006°11'1 1.9
2018-Feb-14 15:30N 53°21' W 006°13'0 0.0
2018-Feb-14 15:00N 53°21' W 006°13'0 0.0
2018-Feb-14 14:30N 53°21' W 006°13'0 0.0
2018-Feb-14 14:00N 53°21' W 006°13'0 0.0
2018-Feb-14 13:30N 53°21' W 006°13'0 0.0
2018-Feb-14 13:00N 53°21' W 006°13'0 0.0
2018-Feb-14 12:30N 53°21' W 006°13'0 0.0
2018-Feb-14 12:00N 53°21' W 006°13'0 0.2
2018-Feb-14 11:30N 53°21' W 006°13'5 8.9
2018-Feb-14 11:00N 53°20' W 006°05'816.5
2018-Feb-14 10:30N 53°20' W 005°52'6716.8
2018-Feb-14 06:29N 53°35' W 004°01'1119.7
2018-Feb-14 05:56N 53°34' W 003°43'819.9
2018-Feb-14 05:31N 53°33' W 003°29'918.3
2018-Feb-14 05:00N 53°31' W 003°13'714.4
2018-Feb-14 04:30N 53°28' W 003°03'1 2.6
2018-Feb-14 04:00N 53°27' W 003°01'0 0.9
2018-Feb-14 03:30N 53°27' W 003°01'0 0.0
2018-Feb-14 02:58N 53°27' W 003°01'0 0.0
2018-Feb-14 02:28N 53°27' W 003°01'0 0.0
2018-Feb-14 01:55N 53°27' W 003°01'0 0.0
2018-Feb-14 01:28N 53°27' W 003°01'0 0.0
2018-Feb-14 00:58N 53°27' W 003°01'0 0.0
2018-Feb-14 00:28N 53°27' W 003°01'0 0.0
2018-Feb-14 00:01N 53°27' W 003°01'0 0.8
2018-Feb-13 23:31N 53°27' W 003°01'1 1.1
2018-Feb-13 23:00N 53°27' W 003°02'4 8.2
2018-Feb-13 22:30N 53°30' W 003°06'917.2
2018-Feb-13 22:00N 53°31' W 003°21'917.9
2018-Feb-13 21:30N 53°31' W 003°36'816.7
2018-Feb-13 21:00N 53°32' W 003°50'817.0
2018-Feb-13 20:30N 53°33' W 004°04'5517.5
2018-Feb-13 17:22N 53°25' W 005°35'718.9
2018-Feb-13 17:00N 53°23' W 005°46'918.9
2018-Feb-13 16:31N 53°21' W 006°01'612.0
2018-Feb-13 16:00N 53°21' W 006°11'1 1.9
2018-Feb-13 15:30N 53°21' W 006°13'0 0.0
2018-Feb-13 15:00N 53°21' W 006°13'0 0.0
2018-Feb-13 14:30N 53°21' W 006°13'0 0.0
2018-Feb-13 13:59N 53°21' W 006°13'0 0.0
2018-Feb-13 13:30N 53°21' W 006°13'0 0.0
2018-Feb-13 13:00N 53°21' W 006°13'0 0.0
2018-Feb-13 12:30N 53°21' W 006°13'0 0.0
2018-Feb-13 12:00N 53°21' W 006°13'0 0.0
2018-Feb-13 11:30N 53°21' W 006°13'2 3.6
2018-Feb-13 11:00N 53°21' W 006°10'816.5
2018-Feb-13 10:30N 53°23' W 005°57'1020.1
2018-Feb-13 10:00N 53°25' W 005°41'6218.3
2018-Feb-13 06:38N 53°35' W 003°58'219.1
2018-Feb-13 06:30N 53°35' W 003°54'1019.3
2018-Feb-13 05:59N 53°33' W 003°37'919.3
2018-Feb-13 05:30N 53°32' W 003°22'817.1
2018-Feb-13 05:00N 53°31' W 003°07'611.6
2018-Feb-13 04:30N 53°27' W 003°01'0 0.0
2018-Feb-13 04:00N 53°27' W 003°01'0 0.8
2018-Feb-13 03:26N 53°27' W 003°01'0 0.0
2018-Feb-13 02:58N 53°27' W 003°01'0 0.0
2018-Feb-13 02:28N 53°27' W 003°01'0 0.0
2018-Feb-13 01:58N 53°27' W 003°01'0 0.0
2018-Feb-13 01:28N 53°27' W 003°01'0 0.0
2018-Feb-13 00:58N 53°27' W 003°01'0 0.0
2018-Feb-13 00:28N 53°27' W 003°01'0 0.0
2018-Feb-12 23:58N 53°27' W 003°01'0 0.0
2018-Feb-12 23:30N 53°27' W 003°01'0 0.8
2018-Feb-12 22:59N 53°27' W 003°01'1 2.1
2018-Feb-12 22:30N 53°28' W 003°03'611.6
2018-Feb-12 22:00N 53°32' W 003°10'714.1
2018-Feb-12 21:30N 53°31' W 003°21'816.0
2018-Feb-12 21:00N 53°31' W 003°35'816.4
2018-Feb-12 20:30N 53°32' W 003°49'816.9
2018-Feb-12 20:00N 53°33' W 004°03'6217.0
2018-Feb-12 16:21N 53°24' W 005°46'717.6
2018-Feb-12 15:58N 53°22' W 005°56'816.3
2018-Feb-12 15:30N 53°21' W 006°09'3 5.2
2018-Feb-12 15:00N 53°21' W 006°13'  
Track history (hours):
 
Tides and Currents Weather Stations Pressure Air Temp Water Temp Dewpoint Dewpoint Depression Visibility Wind Speed Wind Dir Waves Ship Positions

Tahitian Princess

Operator: P & O Irish Sea Ltd

Last reported at 2018-Feb-22 15:00 UTC. Time now 2018-Feb-22 15:01 UTC.
Position N 53°31' W 003°22'.

Length 167 m; draft 5.8 m.

Type: Passenger vessel. MMSI: 310362000.

Date/timePositionNaut miles runAvg speedWind from/ knotsBaromVisibWave heightAir tempDewpointWater temp
2018-Feb-22 15:00N 53°31' W 003°22'1020.4
2018-Feb-22 14:30N 53°31' W 003°39'1020.4
2018-Feb-22 14:00N 53°33' W 003°56'5719.3
2018-Feb-22 11:03N 53°27' W 005°32'118.5
2018-Feb-22 10:58N 53°27' W 005°34'918.6
2018-Feb-22 10:29N 53°23' W 005°48'918.4
2018-Feb-22 10:00N 53°21' W 006°02'612.3
2018-Feb-22 09:30N 53°21' W 006°12'1 1.2
2018-Feb-22 08:58N 53°21' W 006°13'0 0.0
2018-Feb-22 08:30N 53°21' W 006°13'0 0.0
2018-Feb-22 07:53N 53°21' W 006°13'0 0.0
2018-Feb-22 07:31N 53°21' W 006°13'0 0.0
2018-Feb-22 07:00N 53°21' W 006°13'0 0.0
2018-Feb-22 06:30N 53°21' W 006°13'0 0.0
2018-Feb-22 06:00N 53°21' W 006°13'0 0.0
2018-Feb-22 05:30N 53°21' W 006°13'0 0.2
2018-Feb-22 05:00N 53°21' W 006°13'4 7.4
2018-Feb-22 04:30N 53°20' W 006°07'917.8
2018-Feb-22 04:00N 53°23' W 005°53'917.2
2018-Feb-22 03:30N 53°26' W 005°39'5417.8
2018-Feb-22 00:27N 53°36' W 004°09'818.4
2018-Feb-22 00:01N 53°35' W 003°55'918.8
2018-Feb-21 23:30N 53°34' W 003°40'918.6
2018-Feb-21 23:00N 53°33' W 003°24'816.0
2018-Feb-21 22:31N 53°32' W 003°11'714.6
2018-Feb-21 22:00N 53°27' W 003°02'0 0.7
2018-Feb-21 21:30N 53°27' W 003°01'0 0.9
2018-Feb-21 20:58N 53°27' W 003°01'0 0.0
2018-Feb-21 20:29N 53°27' W 003°01'0 0.0
2018-Feb-21 20:00N 53°27' W 003°01'0 0.0
2018-Feb-21 19:30N 53°27' W 003°01'0 0.0
2018-Feb-21 19:00N 53°27' W 003°01'0 0.0
2018-Feb-21 18:30N 53°27' W 003°01'0 0.0
2018-Feb-21 18:00N 53°27' W 003°01'0 0.0
2018-Feb-21 17:30N 53°27' W 003°01'0 0.0
2018-Feb-21 17:00N 53°27' W 003°01'0 0.8
2018-Feb-21 16:30N 53°27' W 003°01'0 0.3
2018-Feb-21 16:00N 53°27' W 003°01'510.8
2018-Feb-21 15:30N 53°31' W 003°07'816.8
2018-Feb-21 15:00N 53°31' W 003°21'917.7
2018-Feb-21 14:30N 53°31' W 003°36'918.2
2018-Feb-21 14:00N 53°32' W 003°51'1019.3
2018-Feb-21 13:28N 53°33' W 004°08'5120.9
2018-Feb-21 11:03N 53°27' W 005°33'320.5
2018-Feb-21 10:54N 53°26' W 005°37'820.5
2018-Feb-21 10:30N 53°23' W 005°51'1019.1
2018-Feb-21 10:01N 53°20' W 006°06'4 8.8
2018-Feb-21 09:30N 53°21' W 006°13'0 0.2
2018-Feb-21 09:00N 53°21' W 006°13'0 0.0
2018-Feb-21 08:30N 53°21' W 006°13'0 0.0
2018-Feb-21 08:00N 53°21' W 006°13'0 0.0
2018-Feb-21 07:30N 53°21' W 006°13'0 0.0
2018-Feb-21 07:00N 53°21' W 006°13'0 0.0
2018-Feb-21 06:30N 53°21' W 006°13'0 0.0
2018-Feb-21 06:00N 53°21' W 006°13'0 0.0
2018-Feb-21 05:30N 53°21' W 006°13'0 0.2
2018-Feb-21 05:00N 53°21' W 006°13'4 8.4
2018-Feb-21 04:30N 53°20' W 006°06'918.4
2018-Feb-21 04:00N 53°23' W 005°51'918.4
2018-Feb-21 03:30N 53°26' W 005°37'5418.5
2018-Feb-21 00:36N 53°35' W 004°07'218.6
2018-Feb-21 00:30N 53°35' W 004°05'1018.5
2018-Feb-20 23:59N 53°34' W 003°48'918.5
2018-Feb-20 23:30N 53°33' W 003°33'918.2
2018-Feb-20 23:00N 53°32' W 003°18'714.9
2018-Feb-20 22:30N 53°31' W 003°06'5 9.7
2018-Feb-20 22:01N 53°27' W 003°01'0 0.2
2018-Feb-20 21:30N 53°27' W 003°01'0 0.9
2018-Feb-20 21:00N 53°27' W 003°01'0 0.0
2018-Feb-20 20:30N 53°27' W 003°01'0 0.0
2018-Feb-20 19:57N 53°27' W 003°01'0 0.0
2018-Feb-20 19:30N 53°27' W 003°01'0 0.0
2018-Feb-20 19:00N 53°27' W 003°01'0 0.0
2018-Feb-20 18:28N 53°27' W 003°01'0 0.0
2018-Feb-20 18:00N 53°27' W 003°01'0 0.0
2018-Feb-20 17:30N 53°27' W 003°01'0 0.0
2018-Feb-20 17:00N 53°27' W 003°01'0 0.7
2018-Feb-20 16:27N 53°27' W 003°01'0 0.4
2018-Feb-20 16:00N 53°27' W 003°01'611.4
2018-Feb-20 15:30N 53°31' W 003°07'816.3
2018-Feb-20 15:00N 53°31' W 003°21'917.5
2018-Feb-20 14:30N 53°31' W 003°36'1019.9
2018-Feb-20 14:00N 53°31' W 003°52'7120.5
2018-Feb-20 10:34N 53°23' W 005°50'119.1
2018-Feb-20 10:30N 53°23' W 005°52'917.6
2018-Feb-20 10:00N 53°20' W 006°06'4 8.0
2018-Feb-20 09:30N 53°21' W 006°13'0 0.2
2018-Feb-20 09:00N 53°21' W 006°13'0 0.0
2018-Feb-20 08:30N 53°21' W 006°13'0 0.0
2018-Feb-20 08:00N 53°21' W 006°13'0 0.0
2018-Feb-20 07:30N 53°21' W 006°13'0 0.0
2018-Feb-20 07:00N 53°21' W 006°13'0 0.0
2018-Feb-20 06:30N 53°21' W 006°13'0 0.0
2018-Feb-20 06:00N 53°21' W 006°13'0 0.0
2018-Feb-20 05:30N 53°21' W 006°13'0 0.4
2018-Feb-20 05:00N 53°21' W 006°13'5 9.4
2018-Feb-20 04:30N 53°20' W 006°05'918.5
2018-Feb-20 04:00N 53°24' W 005°51'918.2
2018-Feb-20 03:30N 53°26' W 005°36'5717.5
2018-Feb-20 00:16N 53°35' W 004°02'616.7
2018-Feb-19 23:55N 53°34' W 003°52'816.5
2018-Feb-19 23:27N 53°34' W 003°39'716.5
2018-Feb-19 23:00N 53°33' W 003°27'816.1
2018-Feb-19 22:30N 53°31' W 003°14'713.0
2018-Feb-19 22:00N 53°28' W 003°04'2 4.4
2018-Feb-19 21:30N 53°27' W 003°01'0 0.9
2018-Feb-19 20:58N 53°27' W 003°01'0 0.0
2018-Feb-19 20:30N 53°27' W 003°01'0 0.0
2018-Feb-19 20:00N 53°27' W 003°01'0 0.0
2018-Feb-19 19:27N 53°27' W 003°01'0 0.0
2018-Feb-19 19:00N 53°27' W 003°01'0 0.0
2018-Feb-19 18:30N 53°27' W 003°01'0 0.0
2018-Feb-19 18:00N 53°27' W 003°01'0 0.0
2018-Feb-19 17:30N 53°27' W 003°01'0 0.0
2018-Feb-19 17:00N 53°27' W 003°01'0 0.0
2018-Feb-19 16:30N 53°27' W 003°01'0 0.0
2018-Feb-19 16:00N 53°27' W 003°01'0 0.0
2018-Feb-19 15:30N 53°27' W 003°01'0 0.0
2018-Feb-19 15:00N 53°27' W 003°01'0 0.5
2018-Feb-19 14:30N 53°27' W 003°01'1 1.9
2018-Feb-19 13:59N 53°26' W 003°01'0 0.1
2018-Feb-19 13:30N 53°26' W 003°01'0 0.4
2018-Feb-19 13:00N 53°26' W 003°01'0 0.2
2018-Feb-19 12:30N 53°26' W 003°01'2 4.4
2018-Feb-19 12:00N 53°24' W 003°00'1 1.5
2018-Feb-19 11:29N 53°23' W 003°01'0 0.0
2018-Feb-19 11:00N 53°23' W 003°01'0 0.0
2018-Feb-19 10:30N 53°23' W 003°01'0 0.0
2018-Feb-19 10:00N 53°23' W 003°01'0 0.0
2018-Feb-19 09:29N 53°23' W 003°01'0 0.0
2018-Feb-19 08:57N 53°23' W 003°01'0 0.0
2018-Feb-19 08:30N 53°23' W 003°01'0 0.0
2018-Feb-19 08:00N 53°23' W 003°01'0 0.0
2018-Feb-19 07:30N 53°23' W 003°01'0 0.0
2018-Feb-19 07:00N 53°23' W 003°01'0 0.0
2018-Feb-19 06:30N 53°23' W 003°01'0 0.0
2018-Feb-19 06:00N 53°23' W 003°01'0 0.0
2018-Feb-19 05:29N 53°23' W 003°01'0 0.0
2018-Feb-19 04:50N 53°23' W 003°01'0 0.0
2018-Feb-19 04:26N 53°23' W 003°01'0 0.0
2018-Feb-19 03:59N 53°23' W 003°01'0 0.0
2018-Feb-19 03:29N 53°23' W 003°01'0 0.0
2018-Feb-19 02:59N 53°23' W 003°01'0 0.0
2018-Feb-19 02:29N 53°23' W 003°01'0 0.0
2018-Feb-19 01:59N 53°23' W 003°01'0 0.0
2018-Feb-19 01:29N 53°23' W 003°01'0 0.0
2018-Feb-19 00:56N 53°23' W 003°01'0 0.0
2018-Feb-19 00:29N 53°23' W 003°01'0 0.0
2018-Feb-18 23:59N 53°23' W 003°01'0 0.0
2018-Feb-18 23:26N 53°23' W 003°01'0 0.0
2018-Feb-18 22:59N 53°23' W 003°01'0 0.0
2018-Feb-18 22:29N 53°23' W 003°01'0 0.0
2018-Feb-18 21:59N 53°23' W 003°01'0 0.0
2018-Feb-18 21:29N 53°23' W 003°01'0 0.0
2018-Feb-18 20:59N 53°23' W 003°01'0 0.0
2018-Feb-18 20:29N 53°23' W 003°01'0 0.0
2018-Feb-18 19:59N 53°23' W 003°01'0 0.0
2018-Feb-18 19:29N 53°23' W 003°01'0 0.0
2018-Feb-18 18:59N 53°23' W 003°01'0 0.0
2018-Feb-18 18:29N 53°23' W 003°01'0 0.0
2018-Feb-18 17:59N 53°23' W 003°01'0 0.0
2018-Feb-18 17:23N 53°23' W 003°01'0 0.0
2018-Feb-18 16:59N 53°23' W 003°01'0 0.0
2018-Feb-18 16:26N 53°23' W 003°01'0 0.0
2018-Feb-18 15:57N 53°23' W 003°01'0 0.0
2018-Feb-18 15:23N 53°23' W 003°01'0 0.0
2018-Feb-18 14:59N 53°23' W 003°01'0 0.0
2018-Feb-18 14:29N 53°23' W 003°01'0 0.0
2018-Feb-18 13:59N 53°23' W 003°01'0 0.0
2018-Feb-18 13:29N 53°23' W 003°01'0 0.0
2018-Feb-18 12:59N 53°23' W 003°01'0 0.0
2018-Feb-18 12:29N 53°23' W 003°01'0 0.0
2018-Feb-18 11:59N 53°23' W 003°01'0 0.0
2018-Feb-18 11:29N 53°23' W 003°01'0 0.0
2018-Feb-18 10:59N 53°23' W 003°01'0 0.0
2018-Feb-18 10:26N 53°23' W 003°01'0 0.0
2018-Feb-18 09:56N 53°23' W 003°01'0 0.0
2018-Feb-18 09:29N 53°23' W 003°01'0 0.0
2018-Feb-18 08:59N 53°23' W 003°01'0 0.0
2018-Feb-18 08:29N 53°23' W 003°01'0 0.0
2018-Feb-18 07:59N 53°23' W 003°01'0 0.0
2018-Feb-18 07:29N 53°23' W 003°01'0 0.0
2018-Feb-18 06:59N 53°23' W 003°01'0 0.0
2018-Feb-18 06:26N 53°23' W 003°01'0 0.0
2018-Feb-18 05:56N 53°23' W 003°01'0 0.0
2018-Feb-18 05:23N 53°23' W 003°01'0 0.0
2018-Feb-18 04:59N 53°23' W 003°01'0 0.0
2018-Feb-18 04:29N 53°23' W 003°01'0 0.0
2018-Feb-18 03:59N 53°23' W 003°01'0 0.0
2018-Feb-18 03:29N 53°23' W 003°01'0 0.0
2018-Feb-18 02:59N 53°23' W 003°01'0 0.0
2018-Feb-18 02:26N 53°23' W 003°01'0 0.0
2018-Feb-18 01:56N 53°23' W 003°01'0 0.0
2018-Feb-18 01:29N 53°23' W 003°01'0 0.0
2018-Feb-18 00:59N 53°23' W 003°01'0 0.0
2018-Feb-18 00:26N 53°23' W 003°01'0 0.0
2018-Feb-17 23:59N 53°23' W 003°01'0 0.0
2018-Feb-17 23:29N 53°23' W 003°01'0 0.0
2018-Feb-17 22:53N 53°23' W 003°01'0 0.0
2018-Feb-17 22:29N 53°23' W 003°01'0 0.0
2018-Feb-17 21:56N 53°23' W 003°01'0 0.0
2018-Feb-17 21:26N 53°23' W 003°01'0 0.0
2018-Feb-17 20:59N 53°23' W 003°01'0 0.0
2018-Feb-17 20:29N 53°23' W 003°01'0 0.0
2018-Feb-17 19:59N 53°23' W 003°01'0 0.0
2018-Feb-17 19:29N 53°23' W 003°01'0 0.0
2018-Feb-17 18:59N 53°23' W 003°01'0 0.0
2018-Feb-17 18:26N 53°23' W 003°01'0 0.0
2018-Feb-17 17:59N 53°23' W 003°01'0 0.0
2018-Feb-17 17:29N 53°23' W 003°01'0 0.0
2018-Feb-17 16:59N 53°23' W 003°01'0 0.0
2018-Feb-17 16:29N 53°23' W 003°01'0 0.0
2018-Feb-17 15:56N 53°23' W 003°01'0 0.0
2018-Feb-17 15:26N 53°23' W 003°01'0 0.0
2018-Feb-17 14:59N 53°23' W 003°01'0 0.0
2018-Feb-17 14:29N 53°23' W 003°01'0 0.0
2018-Feb-17 13:59N 53°23' W 003°01'0 0.0
2018-Feb-17 13:26N 53°23' W 003°01'0 0.0
2018-Feb-17 12:59N 53°23' W 003°01'0 0.0
2018-Feb-17 12:29N 53°23' W 003°01'0 0.0
2018-Feb-17 11:59N 53°23' W 003°01'0 0.0
2018-Feb-17 11:29N 53°23' W 003°01'0 0.0
2018-Feb-17 10:59N 53°23' W 003°01'0 0.0
2018-Feb-17 10:26N 53°23' W 003°01'0 0.0
2018-Feb-17 09:59N 53°23' W 003°01'0 0.0
2018-Feb-17 09:29N 53°23' W 003°01'0 0.0
2018-Feb-17 08:59N 53°23' W 003°01'0 0.0
2018-Feb-17 08:29N 53°23' W 003°01'0 0.0
2018-Feb-17 07:53N 53°23' W 003°01'0 0.0
2018-Feb-17 07:26N 53°23' W 003°01'0 0.0
2018-Feb-17 06:59N 53°23' W 003°01'0 0.0
2018-Feb-17 06:29N 53°23' W 003°01'0 0.0
2018-Feb-17 05:59N 53°23' W 003°01'0 0.0
2018-Feb-17 05:26N 53°23' W 003°01'0 0.0
2018-Feb-17 04:59N 53°23' W 003°01'0 0.0
2018-Feb-17 04:29N 53°23' W 003°01'0 0.0
2018-Feb-17 03:59N 53°23' W 003°01'0 0.0
2018-Feb-17 03:29N 53°23' W 003°01'0 0.0
2018-Feb-17 02:59N 53°23' W 003°01'0 0.0
2018-Feb-17 02:29N 53°23' W 003°01'0 0.0
2018-Feb-17 01:59N 53°23' W 003°01'0 0.0
2018-Feb-17 01:23N 53°23' W 003°01'0 0.0
2018-Feb-17 00:56N 53°23' W 003°01'0 0.0
2018-Feb-17 00:26N 53°23' W 003°01'0 0.0
2018-Feb-16 23:56N 53°23' W 003°01'0 0.0
2018-Feb-16 23:29N 53°23' W 003°01'0 0.0
2018-Feb-16 22:59N 53°23' W 003°01'0 0.0
2018-Feb-16 22:29N 53°23' W 003°01'0 0.0
2018-Feb-16 21:59N 53°23' W 003°01'0 0.0
2018-Feb-16 21:23N 53°23' W 003°01'0 0.0
2018-Feb-16 20:59N 53°23' W 003°01'0 0.0
2018-Feb-16 20:26N 53°23' W 003°01'0 0.0
2018-Feb-16 19:56N 53°23' W 003°01'0 0.0
2018-Feb-16 19:26N 53°23' W 003°01'0 0.0
2018-Feb-16 18:53N 53°23' W 003°01'0 0.0
2018-Feb-16 18:29N 53°23' W 003°01'0 0.0
2018-Feb-16 17:50N 53°23' W 003°01'0 0.0
2018-Feb-16 17:29N 53°23' W 003°01'0 0.0
2018-Feb-16 16:59N 53°23' W 003°01'0 0.0
2018-Feb-16 16:23N 53°23' W 003°01'0 0.0
2018-Feb-16 15:59N 53°23' W 003°01'0 0.0
2018-Feb-16 15:29N 53°23' W 003°01'0 0.0
2018-Feb-16 14:53N 53°23' W 003°01'0 0.0
2018-Feb-16 14:29N 53°23' W 003°01'0 0.0
2018-Feb-16 13:53N 53°23' W 003°01'0 0.0
2018-Feb-16 13:29N 53°23' W 003°01'0 0.0
2018-Feb-16 12:50N 53°23' W 003°01'0 0.0
2018-Feb-16 12:26N 53°23' W 003°01'0 0.0
2018-Feb-16 11:59N 53°23' W 003°01'0 0.0
2018-Feb-16 11:26N 53°23' W 003°01'0 0.0
2018-Feb-16 10:59N 53°23' W 003°01'0 0.0
2018-Feb-16 10:23N 53°23' W 003°01'0 0.0
2018-Feb-16 09:59N 53°23' W 003°01'1 2.5
2018-Feb-16 09:30N 53°24' W 003°01'3 4.9
2018-Feb-16 08:58N 53°27' W 003°01'0 0.6
2018-Feb-16 08:28N 53°27' W 003°01'0 0.0
2018-Feb-16 07:58N 53°27' W 003°01'0 0.0
2018-Feb-16 07:25N 53°27' W 003°01'0 0.0
2018-Feb-16 06:59N 53°27' W 003°01'0 0.0
2018-Feb-16 06:30N 53°27' W 003°01'0 0.0
2018-Feb-16 06:01N 53°27' W 003°01'0 0.0
2018-Feb-16 05:30N 53°27' W 003°01'0 0.0
2018-Feb-16 05:00N 53°27' W 003°01'0 0.0
2018-Feb-16 04:30N 53°27' W 003°01'0 0.0
2018-Feb-16 04:00N 53°27' W 003°01'0 0.0
2018-Feb-16 03:30N 53°27' W 003°01'0 0.0
2018-Feb-16 03:00N 53°27' W 003°01'0 0.0
2018-Feb-16 02:30N 53°27' W 003°01'0 0.0
2018-Feb-16 01:58N 53°27' W 003°01'0 0.0
2018-Feb-16 01:30N 53°27' W 003°01'0 0.0
2018-Feb-16 01:00N 53°27' W 003°01'0 0.0
2018-Feb-16 00:30N 53°27' W 003°01'0 0.0
2018-Feb-16 00:00N 53°27' W 003°01'0 0.0
2018-Feb-15 23:30N 53°27' W 003°01'0 0.5
2018-Feb-15 23:00N 53°27' W 003°01'0 0.6
2018-Feb-15 22:30N 53°27' W 003°01'1 1.8
2018-Feb-15 22:00N 53°27' W 003°02'714.6
2018-Feb-15 21:30N 53°31' W 003°13'1019.1
2018-Feb-15 21:00N 53°31' W 003°29'917.6
2018-Feb-15 20:30N 53°31' W 003°44'917.8
2018-Feb-15 19:59N 53°33' W 003°59'6117.9
2018-Feb-15 16:36N 53°24' W 005°40'218.6
2018-Feb-15 16:29N 53°24' W 005°43'918.7
2018-Feb-15 16:00N 53°22' W 005°58'815.4
2018-Feb-15 15:30N 53°21' W 006°10'2 3.2
2018-Feb-15 14:59N 53°21' W 006°13'0 0.0
2018-Feb-15 14:30N 53°21' W 006°13'0 0.0
2018-Feb-15 14:00N 53°21' W 006°13'0 0.0
2018-Feb-15 13:28N 53°21' W 006°13'0 0.0
2018-Feb-15 13:00N 53°21' W 006°13'0 0.0
2018-Feb-15 12:30N 53°21' W 006°13'0 0.0
2018-Feb-15 12:00N 53°21' W 006°13'0 0.0
2018-Feb-15 11:30N 53°21' W 006°13'2 4.7
2018-Feb-15 11:00N 53°21' W 006°09'816.6
2018-Feb-15 10:31N 53°23' W 005°56'1019.8
2018-Feb-15 10:00N 53°26' W 005°40'5817.6
2018-Feb-15 06:41N 53°36' W 004°03'518.6
2018-Feb-15 06:24N 53°35' W 003°54'819.4
2018-Feb-15 06:00N 53°34' W 003°41'1019.7
2018-Feb-15 05:30N 53°33' W 003°25'917.1
2018-Feb-15 05:00N 53°32' W 003°10'714.8
2018-Feb-15 04:30N 53°27' W 003°01'0 0.3
2018-Feb-15 04:00N 53°27' W 003°01'0 0.9
2018-Feb-15 03:30N 53°27' W 003°01'0 0.0
2018-Feb-15 03:00N 53°27' W 003°01'0 0.0
2018-Feb-15 02:30N 53°27' W 003°01'0 0.0
2018-Feb-15 02:00N 53°27' W 003°01'0 0.0
2018-Feb-15 01:30N 53°27' W 003°01'0 0.0
2018-Feb-15 01:00N 53°27' W 003°01'0 0.0
2018-Feb-15 00:30N 53°27' W 003°01'0 0.2
2018-Feb-14 23:57N 53°27' W 003°01'0 0.8
2018-Feb-14 23:30N 53°27' W 003°01'1 2.3
2018-Feb-14 23:00N 53°27' W 003°03'4 8.1
2018-Feb-14 22:30N 53°31' W 003°07'917.3
2018-Feb-14 22:01N 53°31' W 003°21'917.2
2018-Feb-14 21:30N 53°31' W 003°36'918.2
2018-Feb-14 21:00N 53°32' W 003°51'6317.9
2018-Feb-14 17:29N 53°15' W 005°32'917.7
2018-Feb-14 17:00N 53°17' W 005°47'918.4
2018-Feb-14 16:30N 53°21' W 006°00'713.4
2018-Feb-14 16:00N 53°21' W 006°11'1 1.9
2018-Feb-14 15:30N 53°21' W 006°13'0 0.0
2018-Feb-14 15:00N 53°21' W 006°13'0 0.0
2018-Feb-14 14:30N 53°21' W 006°13'0 0.0
2018-Feb-14 14:00N 53°21' W 006°13'0 0.0
2018-Feb-14 13:30N 53°21' W 006°13'0 0.0
2018-Feb-14 13:00N 53°21' W 006°13'0 0.0
2018-Feb-14 12:30N 53°21' W 006°13'0 0.0
2018-Feb-14 12:00N 53°21' W 006°13'0 0.2
2018-Feb-14 11:30N 53°21' W 006°13'5 8.9
2018-Feb-14 11:00N 53°20' W 006°05'816.5
2018-Feb-14 10:30N 53°20' W 005°52'6716.8
2018-Feb-14 06:29N 53°35' W 004°01'1119.7
2018-Feb-14 05:56N 53°34' W 003°43'819.9
2018-Feb-14 05:31N 53°33' W 003°29'918.3
2018-Feb-14 05:00N 53°31' W 003°13'714.4
2018-Feb-14 04:30N 53°28' W 003°03'1 2.6
2018-Feb-14 04:00N 53°27' W 003°01'0 0.9
2018-Feb-14 03:30N 53°27' W 003°01'0 0.0
2018-Feb-14 02:58N 53°27' W 003°01'0 0.0
2018-Feb-14 02:28N 53°27' W 003°01'0 0.0
2018-Feb-14 01:55N 53°27' W 003°01'0 0.0
2018-Feb-14 01:28N 53°27' W 003°01'0 0.0
2018-Feb-14 00:58N 53°27' W 003°01'0 0.0
2018-Feb-14 00:28N 53°27' W 003°01'0 0.0
2018-Feb-14 00:01N 53°27' W 003°01'0 0.8
2018-Feb-13 23:31N 53°27' W 003°01'1 1.1
2018-Feb-13 23:00N 53°27' W 003°02'4 8.2
2018-Feb-13 22:30N 53°30' W 003°06'917.2
2018-Feb-13 22:00N 53°31' W 003°21'917.9
2018-Feb-13 21:30N 53°31' W 003°36'816.7
2018-Feb-13 21:00N 53°32' W 003°50'817.0
2018-Feb-13 20:30N 53°33' W 004°04'5517.5
2018-Feb-13 17:22N 53°25' W 005°35'718.9
2018-Feb-13 17:00N 53°23' W 005°46'918.9
2018-Feb-13 16:31N 53°21' W 006°01'612.0
2018-Feb-13 16:00N 53°21' W 006°11'1 1.9
2018-Feb-13 15:30N 53°21' W 006°13'0 0.0
2018-Feb-13 15:00N 53°21' W 006°13'0 0.0
2018-Feb-13 14:30N 53°21' W 006°13'0 0.0
2018-Feb-13 13:59N 53°21' W 006°13'0 0.0
2018-Feb-13 13:30N 53°21' W 006°13'0 0.0
2018-Feb-13 13:00N 53°21' W 006°13'0 0.0
2018-Feb-13 12:30N 53°21' W 006°13'0 0.0
2018-Feb-13 12:00N 53°21' W 006°13'0 0.0
2018-Feb-13 11:30N 53°21' W 006°13'2 3.6
2018-Feb-13 11:00N 53°21' W 006°10'816.5
2018-Feb-13 10:30N 53°23' W 005°57'1020.1
2018-Feb-13 10:00N 53°25' W 005°41'6218.3
2018-Feb-13 06:38N 53°35' W 003°58'219.1
2018-Feb-13 06:30N 53°35' W 003°54'1019.3
2018-Feb-13 05:59N 53°33' W 003°37'919.3
2018-Feb-13 05:30N 53°32' W 003°22'817.1
2018-Feb-13 05:00N 53°31' W 003°07'611.6
2018-Feb-13 04:30N 53°27' W 003°01'0 0.0
2018-Feb-13 04:00N 53°27' W 003°01'0 0.8
2018-Feb-13 03:26N 53°27' W 003°01'0 0.0
2018-Feb-13 02:58N 53°27' W 003°01'0 0.0
2018-Feb-13 02:28N 53°27' W 003°01'0 0.0
2018-Feb-13 01:58N 53°27' W 003°01'0 0.0
2018-Feb-13 01:28N 53°27' W 003°01'0 0.0
2018-Feb-13 00:58N 53°27' W 003°01'0 0.0
2018-Feb-13 00:28N 53°27' W 003°01'0 0.0
2018-Feb-12 23:58N 53°27' W 003°01'0 0.0
2018-Feb-12 23:30N 53°27' W 003°01'0 0.8
2018-Feb-12 22:59N 53°27' W 003°01'1 2.1
2018-Feb-12 22:30N 53°28' W 003°03'611.6
2018-Feb-12 22:00N 53°32' W 003°10'714.1
2018-Feb-12 21:30N 53°31' W 003°21'816.0
2018-Feb-12 21:00N 53°31' W 003°35'816.4
2018-Feb-12 20:30N 53°32' W 003°49'816.9
2018-Feb-12 20:00N 53°33' W 004°03'6217.0
2018-Feb-12 16:21N 53°24' W 005°46'717.6
2018-Feb-12 15:58N 53°22' W 005°56'816.3
2018-Feb-12 15:30N 53°21' W 006°09'3 5.2
2018-Feb-12 15:00N 53°21' W 006°13'  

Dump ship's entire track history